• Join FlightAware (Why Join?)
  • Login
  • US Flag 
03:38AM EST


 

Airport Tracker/Info


-or-


 

Live Flight TrackerFlight Track Log ✈ EJA941 ✈ 08-Oct-2013 ✈ KOKC - KMAF

Flight Track Log - Related Links

Times and Time Zones

All times are in EDT time to prevent confusion due to time zone crossing. See the EJA941 flight status page for this flight to view local times or setup timezone preferences in your user account.

Time Position Orientation Groundspeed Altitude Reporting Facility
EDT Latitude Longitude Course Direction KTS MPH feet Rate Location/Type
07:51AM 35.3831 -97.5944 188° South 154 177 1,800  Level Fort Worth Center
07:51AM 35.3686 -97.5969 188° South 159 183 2,800 2,760 Climbing Fort Worth Center
07:52AM 35.3142 -97.6069 189° South 230 265 5,400 2,520 Climbing Fort Worth Center
07:53AM 35.2328 -97.6678 211° Southwest 289 333 8,500 2,520 Climbing Fort Worth Center
07:54AM 35.1639 -97.7183 211° Southwest 300 345 11,200 2,040 Climbing Fort Worth Center
07:55AM 35.0867 -97.7814 214° Southwest 314 361 12,600 1,500 Climbing Fort Worth Center
07:56AM 35.0050 -97.8419 211° Southwest 334 384 14,300 1,440 Climbing Fort Worth Center
07:57AM 34.9150 -97.9072 211° Southwest 360 414 15,500 1,260 Climbing Fort Worth Center
07:58AM 34.8231 -97.9775 212° Southwest 378 435 16,900 1,200 Climbing Fort Worth Center
07:59AM 34.7308 -98.0453 211° Southwest 390 449 18,000 1,200 Climbing Fort Worth Center
08:00AM 34.6344 -98.1175 212° Southwest 401 461 19,300 1,380 Climbing Fort Worth Center
08:01AM 34.5464 -98.1825 211° Southwest 412 474 20,800 1,500 Climbing Fort Worth Center
08:02AM 34.4458 -98.2572 212° Southwest 420 483 22,300 1,500 Climbing Fort Worth Center
08:03AM 34.3325 -98.3439 212° Southwest 433 498 23,900 1,500 Climbing Fort Worth Center
08:04AM 34.2297 -98.4208 212° Southwest 439 505 25,300 1,380 Climbing Fort Worth Center
08:05AM 34.1392 -98.5200 222° Southwest 439 505 26,700 1,320 Climbing Fort Worth Center
08:06AM 34.0711 -98.6472 237° Southwest 443 510 28,000 600 Climbing Fort Worth Center
08:07AM 33.9989 -98.7764 236° Southwest 459 528 28,000  Level Fort Worth Center
08:08AM 33.9222 -98.9103 235° Southwest 476 548 28,000  Level Fort Worth Center
08:09AM 33.8414 -99.0464 234° Southwest 492 566 28,000  Level Fort Worth Center
08:10AM 33.7642 -99.1850 236° Southwest 502 578 28,000  Level Fort Worth Center
08:11AM 33.6828 -99.3231 235° Southwest 508 585 28,000  Level Fort Worth Center
08:12AM 33.6036 -99.4611 235° Southwest 508 585 28,000  Level Fort Worth Center
08:13AM 33.5239 -99.5961 235° Southwest 508 585 28,000  Level Fort Worth Center
08:14AM 33.4444 -99.7336 235° Southwest 508 585 28,000  Level Fort Worth Center
08:15AM 33.3603 -99.8706 234° Southwest 508 585 28,000  Level Fort Worth Center
08:16AM 33.2825 -100.0075 236° Southwest 508 585 28,000  Level Fort Worth Center
08:17AM 33.2003 -100.1442 234° Southwest 508 585 28,000  Level Fort Worth Center
08:18AM 33.1200 -100.2806 235° Southwest 508 585 28,000  Level Fort Worth Center
08:19AM 33.0375 -100.4167 234° Southwest 508 585 28,000  Level Fort Worth Center
08:20AM 32.9569 -100.5528 235° Southwest 508 585 28,000  Level Fort Worth Center
08:21AM 32.8742 -100.6883 234° Southwest 508 585 28,000 -120 Level Fort Worth Center
08:22AM 32.7911 -100.8261 234° Southwest 514 592 27,800 -1,260 Descending Fort Worth Center
08:23AM 32.7122 -100.9564 234° Southwest 509 586 25,500 -2,460 Descending Fort Worth Center
08:24AM 32.6378 -101.0792 234° Southwest 488 562 22,900 -2,520 Descending Fort Worth Center
08:25AM 32.5653 -101.1994 234° Southwest 476 548 20,500 -2,340 Descending Fort Worth Center
08:26AM 32.4911 -101.3097 231° Southwest 464 534 18,300 -2,340 Descending Fort Worth Center
08:27AM 32.4247 -101.4225 235° Southwest 459 528 15,900 -2,160 Descending Fort Worth Center
08:28AM 32.3586 -101.5328 235° Southwest 440 506 14,000 -960 Descending Fort Worth Center
08:29AM 32.2967 -101.6356 235° Southwest 413 475 14,000 -540 Level Fort Worth Center
08:30AM 32.2414 -101.7264 234° Southwest 377 434 13,000 -1,620 Descending Fort Worth Center
08:31AM 32.1947 -101.8100 237° Southwest 336 387 10,800 -2,220 Descending Fort Worth Center
08:32AM 32.1625 -101.8992 247° West 308 354 8,600 -2,040 Descending Fort Worth Center
08:33AM 32.1322 -101.9811 246° West 297 342 6,800 -1,380 Descending Fort Worth Center
08:34AM 32.1064 -102.0631 250° West 285 328 5,900 -600 Descending Fort Worth Center
08:35AM 32.0803 -102.1475 250° West 267 307 5,700 -600 Descending Fort Worth Center
08:36AM 32.0569 -102.2078 245° Southwest 234 269 4,800 -840 Descending Fort Worth Center
08:37AM 32.0172 -102.2106 183° South 167 192 4,100 -840 Descending Fort Worth Center
08:38AM 31.9819 -102.2086 177° South 135 155 3,200 -660 Descending Fort Worth Center
08:39AM 31.9486 -102.2044 174° South 124 143 2,800 -240 Descending Fort Worth Center
08:40AM 31.9403 -102.2039 177° South 96 110 2,800  Level Fort Worth Center
08:41AM 31.9258 -102.2033 178° South 71 82 2,800  Level Fort Worth Center